Time;durP1;ratioP1;P1;durP2;ratioP2;P2;SDS_P1;SDS_P2;PMS_P1;PMS_P2;Temp;Humidity;BMP_temperature;BMP_pressure;BME280_temperature;BME280_humidity;BME280_pressure;Samples;Min_cycle;Max_cycle;Signal;HPM_P1;HPM_P2
2021/12/18 00:00:34;;;;;;;21.40;19.40;;;;;;;3.07;100.00;102354.28;5005372;28;20193;-57
2021/12/18 00:03:00;;;;;;;21.50;19.50;;;;;;;3.08;100.00;102353.47;4992083;28;20261;-57
2021/12/18 00:05:25;;;;;;;23.87;21.53;;;;;;;3.07;100.00;102349.16;5004443;28;20196;-58
2021/12/18 00:07:51;;;;;;;23.30;21.10;;;;;;;3.09;100.00;102360.38;4998623;28;20231;-58
2021/12/18 00:10:22;;;;;;;21.77;19.73;;;;;;;3.07;100.00;102360.25;5006770;28;20562;-57
2021/12/18 00:12:49;;;;;;;21.70;19.60;;;;;;;3.05;100.00;102355.06;5000047;28;20185;-57
2021/12/18 00:15:23;;;;;;;24.07;21.67;;;;;;;3.07;100.00;102351.72;4998473;28;20233;-57
2021/12/18 00:17:48;;;;;;;23.53;21.23;;;;;;;3.03;100.00;102348.09;5010884;28;20220;-57
2021/12/18 00:20:16;;;;;;;24.00;21.73;;;;;;;2.99;100.00;102336.81;4989153;28;20189;-58
2021/12/18 00:22:43;;;;;;;24.30;22.00;;;;;;;2.98;100.00;102347.84;4996399;28;20341;-57
2021/12/18 00:25:09;;;;;;;25.67;23.07;;;;;;;2.95;100.00;102342.53;5007048;28;20346;-56
2021/12/18 00:27:35;;;;;;;25.40;22.90;;;;;;;2.92;100.00;102337.28;4995969;28;20223;-57
2021/12/18 00:30:01;;;;;;;24.53;21.93;;;;;;;2.86;100.00;102326.69;5000137;28;20233;-57
2021/12/18 00:32:26;;;;;;;24.00;21.50;;;;;;;2.82;100.00;102333.34;4996977;28;20254;-56
2021/12/18 00:34:51;;;;;;;24.50;22.10;;;;;;;2.83;100.00;102331.66;5002306;28;20395;-55
2021/12/18 00:37:17;;;;;;;25.07;22.47;;;;;;;2.78;100.00;102328.84;4998242;28;20311;-56
2021/12/18 00:39:56;;;;;;;24.97;22.23;;;;;;;2.73;100.00;102338.81;5010853;28;20653;-55
2021/12/18 00:45:17;;;;;;;24.90;22.30;;;;;;;2.68;100.00;102327.44;4992240;28;20201;-56
2021/12/18 00:47:45;;;;;;;25.83;23.03;;;;;;;2.67;100.00;102323.13;4999857;28;20651;-57
2021/12/18 00:50:14;;;;;;;26.20;23.40;;;;;;;2.66;100.00;102334.13;5006161;28;20198;-57
2021/12/18 00:52:39;;;;;;;24.47;21.90;;;;;;;2.61;100.00;102330.44;5014058;27;20850;-58
2021/12/18 00:55:06;;;;;;;26.53;23.63;;;;;;;2.55;100.00;102337.75;5010521;27;21689;-58
2021/12/18 00:57:31;;;;;;;27.33;24.43;;;;;;;2.59;100.00;102335.47;4996275;28;20248;-56
2021/12/18 01:00:01;;;;;;;28.20;25.10;;;;;;;2.57;100.00;102336.19;4999231;28;20653;-56
2021/12/18 01:02:28;;;;;;;25.57;22.77;;;;;;;2.56;100.00;102336.97;4995928;28;20196;-57
2021/12/18 01:04:54;;;;;;;27.80;24.80;;;;;;;2.57;100.00;102337.03;4992629;28;20180;-57
2021/12/18 01:07:19;;;;;;;26.77;24.03;;;;;;;2.53;100.00;102335.13;4998813;28;20573;-56
2021/12/18 01:12:13;;;;;;;26.87;23.60;;;;;;;2.55;100.00;102338.66;4997422;28;20200;-59
2021/12/18 01:14:59;;;;;;;;;;;;;;;;;;;;;
2021/12/18 01:25:04;;;;;;;28.87;24.97;;;;;;;2.53;100.00;102347.91;4999446;28;20692;-58
2021/12/18 01:27:30;;;;;;;30.33;25.97;;;;;;;2.50;100.00;102334.06;5011468;28;20217;-58
2021/12/18 01:29:55;;;;;;;30.87;26.23;;;;;;;2.47;100.00;102345.00;5003483;28;20762;-56
2021/12/18 01:32:21;;;;;;;28.10;25.10;;;;;;;2.43;100.00;102346.50;5013903;28;20278;-55
2021/12/18 01:34:48;;;;;;;29.10;24.87;;;;;;;2.42;100.00;102347.28;5019775;28;20189;-56
2021/12/18 01:37:13;;;;;;;29.27;26.10;;;;;;;2.41;100.00;102339.53;5006581;28;20242;-57
2021/12/18 01:39:39;;;;;;;28.77;25.67;;;;;;;2.38;100.00;102353.00;5004071;28;20181;-57
2021/12/18 01:45:17;;;;;;;30.37;26.30;;;;;;;2.36;100.00;102353.72;5029878;28;20398;-55
2021/12/18 01:53:11;;;;;;;30.90;27.50;;;;;;;2.29;100.00;102347.38;5003260;28;20200;-58
2021/12/18 01:55:38;;;;;;;30.17;26.87;;;;;;;2.28;100.00;102350.72;5000526;28;20179;-58
2021/12/18 01:58:05;;;;;;;32.50;27.17;;;;;;;2.28;100.00;102349.03;5016909;28;20208;-57
2021/12/18 02:00:38;;;;;;;30.43;26.63;;;;;;;2.28;100.00;102343.06;5006551;28;20270;-58
2021/12/18 02:03:04;;;;;;;31.20;27.07;;;;;;;2.26;100.00;102340.41;4997105;28;20696;-57
2021/12/18 02:05:30;;;;;;;32.43;28.23;;;;;;;2.25;100.00;102346.31;4997541;28;20196;-57
2021/12/18 02:07:56;;;;;;;33.23;28.27;;;;;;;2.22;100.00;102347.78;5020616;28;20209;-57
2021/12/18 02:10:25;;;;;;;31.27;26.37;;;;;;;2.21;100.00;102338.34;5001121;28;20197;-58
2021/12/18 02:21:15;;;;;;;33.03;28.23;;;;;;;2.28;100.00;102340.50;4997695;28;20194;-55
2021/12/18 02:23:41;;;;;;;32.20;27.83;;;;;;;2.22;100.00;102338.47;5006853;28;20610;-56
2021/12/18 02:26:07;;;;;;;33.83;27.90;;;;;;;2.21;100.00;102339.25;5005840;28;20223;-55
2021/12/18 02:28:33;;;;;;;32.23;28.00;;;;;;;2.22;100.00;102325.69;5005720;28;20894;-55
2021/12/18 02:30:59;;;;;;;36.70;28.93;;;;;;;2.21;100.00;102336.72;5006781;28;20195;-55
2021/12/18 02:33:26;;;;;;;33.17;29.00;;;;;;;2.20;100.00;102332.38;5000831;28;20181;-55
2021/12/18 02:35:55;;;;;;;33.57;27.67;;;;;;;2.16;100.00;102327.00;5029838;28;20595;-56
2021/12/18 02:38:30;;;;;;;33.53;28.83;;;;;;;2.17;100.00;102339.88;5002689;28;20229;-56
2021/12/18 02:43:34;;;;;;;33.87;29.17;;;;;;;2.21;100.00;102333.25;4997483;28;20217;-56
2021/12/18 02:46:00;;;;;;;35.50;29.27;;;;;;;2.16;100.00;102340.66;5001786;28;20680;-56
2021/12/18 02:48:29;;;;;;;33.77;28.37;;;;;;;2.20;100.00;102331.47;5032069;28;20196;-57
2021/12/18 02:50:56;;;;;;;35.07;29.23;;;;;;;2.23;100.00;102341.88;5004784;28;20184;-55
2021/12/18 02:53:22;;;;;;;33.83;29.17;;;;;;;2.22;100.00;102343.56;5004723;28;20664;-56
2021/12/18 02:55:59;;;;;;;34.33;29.13;;;;;;;2.22;100.00;102327.34;4997584;28;20189;-57
2021/12/18 02:58:25;;;;;;;35.43;29.80;;;;;;;2.26;100.00;102339.53;5002442;28;20214;-58
2021/12/18 03:00:52;;;;;;;36.23;28.63;;;;;;;2.25;100.00;102333.53;4999713;28;20295;-57
2021/12/18 03:03:18;;;;;;;35.40;29.80;;;;;;;2.24;100.00;102341.09;5000440;28;20311;-56
2021/12/18 03:05:56;;;;;;;36.63;29.83;;;;;;;2.24;100.00;102328.31;5010703;28;20199;-57
2021/12/18 03:08:35;;;;;;;33.60;29.07;;;;;;;2.25;100.00;102330.09;5001562;28;20236;-56
2021/12/18 03:20:11;;;;;;;36.47;30.93;;;;;;;2.29;100.00;102334.59;5018277;28;20212;-56
2021/12/18 03:27:24;;;;;;;34.17;28.67;;;;;;;2.28;100.00;102338.81;4995632;28;20703;-56
2021/12/18 03:29:50;;;;;;;34.77;29.93;;;;;;;2.29;100.00;102330.34;5009920;28;20185;-58
2021/12/18 03:32:15;;;;;;;37.33;29.97;;;;;;;2.32;100.00;102331.31;5001474;28;20200;-58
2021/12/18 03:34:41;;;;;;;34.97;29.27;;;;;;;2.30;100.00;102326.13;5002656;28;20185;-56
2021/12/18 03:37:07;;;;;;;35.40;29.57;;;;;;;2.29;100.00;102321.81;4996688;28;20273;-57
2021/12/18 03:39:32;;;;;;;37.17;29.67;;;;;;;2.26;100.00;102327.66;4994945;28;20653;-56
2021/12/18 03:41:57;;;;;;;34.73;28.37;;;;;;;2.27;100.00;102333.63;4996644;28;20185;-57
2021/12/18 03:44:23;;;;;;;33.27;28.33;;;;;;;2.24;100.00;102330.88;4989557;28;20684;-57
2021/12/18 03:46:49;;;;;;;35.97;30.17;;;;;;;2.22;100.00;102329.91;4992473;28;20278;-57
2021/12/18 03:49:15;;;;;;;37.33;28.73;;;;;;;2.18;100.00;102328.00;5006022;28;20196;-57
2021/12/18 03:51:40;;;;;;;35.23;27.90;;;;;;;2.12;100.00;102329.38;4994775;28;20284;-58
2021/12/18 03:54:06;;;;;;;35.20;27.87;;;;;;;2.13;100.00;102317.47;5019002;28;20660;-57
2021/12/18 03:56:32;;;;;;;35.87;29.13;;;;;;;2.13;100.00;102331.16;5006167;28;20211;-57
2021/12/18 03:58:58;;;;;;;35.93;29.03;;;;;;;2.06;100.00;102323.91;4996813;28;20188;-57
2021/12/18 04:01:24;;;;;;;33.43;26.53;;;;;;;2.03;100.00;102318.63;5006717;28;20190;-55
2021/12/18 04:03:50;;;;;;;35.07;28.93;;;;;;;1.98;100.00;102330.25;4993477;28;20575;-58
2021/12/18 04:06:16;;;;;;;33.17;27.60;;;;;;;1.92;100.00;102333.31;5007330;28;20184;-54
2021/12/18 04:08:42;;;;;;;33.97;28.57;;;;;;;1.90;100.00;102336.56;5002802;28;20254;-57
2021/12/18 04:11:07;;;;;;;34.87;27.87;;;;;;;1.87;100.00;102333.84;5009341;28;20207;-57
2021/12/18 04:13:33;;;;;;;34.47;28.57;;;;;;;1.83;100.00;102343.88;5009651;28;20242;-57
2021/12/18 04:15:58;;;;;;;34.67;28.70;;;;;;;1.84;100.00;102342.19;5005197;28;20227;-55
2021/12/18 04:18:24;;;;;;;33.60;28.60;;;;;;;1.85;100.00;102335.41;5016627;28;20216;-57
2021/12/18 04:20:49;;;;;;;35.67;27.33;;;;;;;1.83;100.00;102348.97;4998813;28;20192;-57
2021/12/18 04:23:15;;;;;;;34.00;28.10;;;;;;;1.85;100.00;102343.94;4998867;28;20328;-58
2021/12/18 04:25:41;;;;;;;37.43;30.07;;;;;;;1.91;100.00;102341.78;5002470;28;20609;-56
2021/12/18 04:28:07;;;;;;;37.97;30.50;;;;;;;1.95;100.00;102346.28;5004004;28;20223;-57
2021/12/18 04:30:32;;;;;;;37.00;30.00;;;;;;;2.00;100.00;102343.09;5011074;28;20700;-59
2021/12/18 04:32:58;;;;;;;37.93;30.20;;;;;;;2.04;100.00;102339.94;5008076;28;20212;-55
2021/12/18 04:35:23;;;;;;;36.77;30.37;;;;;;;2.07;100.00;102347.78;4998981;28;20570;-58
2021/12/18 04:37:49;;;;;;;36.13;29.93;;;;;;;2.11;100.00;102345.50;4994715;28;20224;-55
2021/12/18 04:40:15;;;;;;;35.37;28.00;;;;;;;2.14;100.00;102352.44;4996783;28;20203;-57
2021/12/18 04:42:40;;;;;;;36.67;30.60;;;;;;;2.19;100.00;102342.53;4998764;28;20218;-57
2021/12/18 04:45:06;;;;;;;36.07;29.87;;;;;;;2.21;100.00;102343.47;4998951;28;20934;-57
2021/12/18 04:47:31;;;;;;;37.57;28.13;;;;;;;2.24;100.00;102346.22;4998975;28;20208;-57
2021/12/18 04:49:57;;;;;;;33.77;28.80;;;;;;;2.27;100.00;102348.94;5000859;28;20574;-55
2021/12/18 04:52:25;;;;;;;34.97;30.00;;;;;;;2.30;100.00;102346.59;5005950;28;20706;-57
2021/12/18 04:54:51;;;;;;;38.00;29.87;;;;;;;2.35;100.00;102349.41;4994930;28;20481;-56
2021/12/18 04:57:17;;;;;;;34.17;28.73;;;;;;;2.40;100.00;102355.66;5014790;28;20819;-57
2021/12/18 04:59:44;;;;;;;34.07;29.37;;;;;;;2.41;100.00;102355.75;4996241;28;20257;-53
2021/12/18 05:02:16;;;;;;;33.67;28.73;;;;;;;2.44;100.00;102357.59;5005342;28;20279;-57
2021/12/18 05:04:42;;;;;;;36.30;29.10;;;;;;;2.48;100.00;102351.88;5001067;28;20213;-56
2021/12/18 05:07:10;;;;;;;34.37;29.37;;;;;;;2.49;100.00;102353.63;4999556;28;20219;-58
2021/12/18 05:09:36;;;;;;;34.17;29.17;;;;;;;2.52;100.00;102355.47;4999756;28;20652;-56
2021/12/18 05:12:01;;;;;;;34.10;28.97;;;;;;;2.52;100.00;102348.69;5001153;28;20188;-56
2021/12/18 05:14:26;;;;;;;33.57;29.17;;;;;;;2.53;100.00;102355.56;4996692;28;20181;-54
2021/12/18 05:16:52;;;;;;;32.50;28.00;;;;;;;2.54;100.00;102359.00;4999674;28;20215;-57
2021/12/18 05:19:17;;;;;;;33.17;28.13;;;;;;;2.54;100.00;102349.69;4992490;28;20236;-57
2021/12/18 05:21:43;;;;;;;33.43;28.97;;;;;;;2.56;100.00;102352.31;5009950;28;20234;-59
2021/12/18 05:24:08;;;;;;;32.50;28.37;;;;;;;2.55;100.00;102356.56;5001648;28;20302;-56
2021/12/18 05:26:33;;;;;;;32.67;27.73;;;;;;;2.55;100.00;102356.56;5002007;27;20593;-57
2021/12/18 05:28:59;;;;;;;32.30;27.27;;;;;;;2.55;100.00;102354.00;4996812;28;20185;-56
2021/12/18 05:31:24;;;;;;;30.47;26.87;;;;;;;2.56;100.00;102357.41;5003178;28;20188;-56
2021/12/18 05:33:54;;;;;;;32.57;27.20;;;;;;;2.56;100.00;102357.41;5023358;28;20184;-57
2021/12/18 05:39:09;;;;;;;31.53;28.10;;;;;;;2.53;100.00;102353.03;4997207;28;20214;-57
2021/12/18 05:41:35;;;;;;;32.53;28.13;;;;;;;2.54;100.00;102352.22;4998285;28;20201;-57
2021/12/18 05:44:02;;;;;;;32.27;26.57;;;;;;;2.54;100.00;102359.91;5033060;28;20213;-57
2021/12/18 05:46:28;;;;;;;34.23;28.93;;;;;;;2.54;100.00;102353.88;4995574;28;20200;-56
2021/12/18 05:48:53;;;;;;;31.50;27.03;;;;;;;2.51;100.00;102352.06;4993727;28;20680;-57
2021/12/18 05:51:19;;;;;;;31.80;28.17;;;;;;;2.52;100.00;102350.34;4989147;28;20198;-58
2021/12/18 05:53:44;;;;;;;32.73;27.87;;;;;;;2.50;100.00;102359.59;5002531;28;20191;-58
2021/12/18 05:56:10;;;;;;;31.50;26.60;;;;;;;2.48;100.00;102364.66;5003732;28;20211;-57
2021/12/18 05:58:36;;;;;;;32.93;26.97;;;;;;;2.47;100.00;102367.13;4995047;28;20805;-56
2021/12/18 06:01:01;;;;;;;31.83;26.73;;;;;;;2.46;100.00;102376.44;4996151;28;20200;-58
2021/12/18 06:03:27;;;;;;;31.23;26.97;;;;;;;2.46;100.00;102378.13;4997430;28;20215;-58
2021/12/18 06:05:52;;;;;;;31.47;26.60;;;;;;;2.44;100.00;102367.81;4999124;28;20207;-57
2021/12/18 06:08:18;;;;;;;32.87;27.67;;;;;;;2.41;100.00;102365.97;4998128;28;20199;-56
2021/12/18 06:10:43;;;;;;;32.20;27.20;;;;;;;2.42;100.00;102365.19;5000729;28;21391;-57
2021/12/18 06:13:08;;;;;;;29.93;25.17;;;;;;;2.41;100.00;102367.66;4991963;28;20185;-55
2021/12/18 06:15:34;;;;;;;30.60;25.80;;;;;;;2.39;100.00;102370.09;4988628;28;20622;-57
2021/12/18 06:18:00;;;;;;;30.90;25.37;;;;;;;2.39;100.00;102366.69;4991192;28;20291;-56
2021/12/18 06:20:27;;;;;;;33.50;26.87;;;;;;;2.40;100.00;102387.19;4995447;28;20652;-57
2021/12/18 06:22:53;;;;;;;30.80;26.20;;;;;;;2.40;100.00;102371.88;5024092;28;20216;-56
2021/12/18 06:25:19;;;;;;;30.47;25.83;;;;;;;2.40;100.00;102371.88;5002862;28;20223;-57
2021/12/18 06:27:45;;;;;;;30.33;26.13;;;;;;;2.38;100.00;102373.44;4991762;28;20273;-56
2021/12/18 06:30:11;;;;;;;31.63;25.20;;;;;;;2.42;100.00;102379.66;4993465;28;20188;-57
2021/12/18 06:32:38;;;;;;;29.57;24.57;;;;;;;2.43;100.00;102381.38;4994856;28;20922;-56
2021/12/18 06:35:04;;;;;;;30.00;24.27;;;;;;;2.40;100.00;102382.09;4996429;28;20211;-57
2021/12/18 06:37:29;;;;;;;30.97;25.20;;;;;;;2.41;100.00;102388.97;4990174;28;20696;-58
2021/12/18 06:39:55;;;;;;;30.83;25.33;;;;;;;2.38;100.00;102381.13;4992471;28;20188;-57
2021/12/18 06:42:20;;;;;;;29.07;24.33;;;;;;;2.40;100.00;102382.09;4991534;28;20194;-56
2021/12/18 06:44:45;;;;;;;32.27;26.37;;;;;;;2.38;100.00;102376.00;4998305;28;20223;-55
2021/12/18 06:47:11;;;;;;;30.80;25.73;;;;;;;2.40;100.00;102383.78;4994025;28;20204;-57
2021/12/18 06:49:36;;;;;;;31.13;25.80;;;;;;;2.37;100.00;102387.00;5008700;28;20184;-57
2021/12/18 06:52:02;;;;;;;30.93;26.00;;;;;;;2.37;100.00;102388.69;5012723;28;20349;-58
2021/12/18 06:54:27;;;;;;;31.07;26.40;;;;;;;2.39;100.00;102398.22;4998452;28;20211;-57
2021/12/18 06:56:53;;;;;;;31.63;26.83;;;;;;;2.38;100.00;102383.66;4993988;28;20521;-57
2021/12/18 06:59:18;;;;;;;31.47;26.27;;;;;;;2.37;100.00;102389.56;4995676;28;20271;-58
2021/12/18 07:01:44;;;;;;;32.27;26.43;;;;;;;2.38;100.00;102395.59;5006683;28;20545;-57
2021/12/18 07:04:10;;;;;;;31.30;26.13;;;;;;;2.37;100.00;102394.69;4990772;28;20212;-57
2021/12/18 07:06:36;;;;;;;31.97;24.90;;;;;;;2.37;100.00;102392.13;4993430;28;20213;-58
2021/12/18 07:09:02;;;;;;;30.63;24.93;;;;;;;2.37;100.00;102394.69;4998690;28;20203;-59
2021/12/18 07:11:27;;;;;;;32.03;26.53;;;;;;;2.33;100.00;102399.53;4991818;28;20184;-57
2021/12/18 07:13:53;;;;;;;30.97;25.07;;;;;;;2.33;100.00;102389.31;4994968;28;20571;-48
2021/12/18 07:16:18;;;;;;;32.13;26.30;;;;;;;2.34;100.00;102375.75;5003496;28;20257;-48
2021/12/18 07:18:43;;;;;;;31.57;25.90;;;;;;;2.34;100.00;102397.09;5002075;28;20223;-49
2021/12/18 07:21:09;;;;;;;30.90;24.70;;;;;;;2.28;100.00;102392.47;4994057;28;20642;-48
2021/12/18 07:23:34;;;;;;;32.10;25.73;;;;;;;2.29;100.00;102406.13;4995248;28;20315;-49
2021/12/18 07:25:59;;;;;;;30.63;24.53;;;;;;;2.27;100.00;102398.38;4993369;28;20189;-48
2021/12/18 07:28:25;;;;;;;31.13;25.03;;;;;;;2.24;100.00;102410.09;4992007;28;20205;-48
2021/12/18 07:30:50;;;;;;;31.57;26.63;;;;;;;2.23;100.00;102410.88;4994730;28;20195;-48
2021/12/18 07:33:16;;;;;;;31.93;26.57;;;;;;;2.22;100.00;102396.34;4991200;28;20192;-49
2021/12/18 07:35:42;;;;;;;30.37;26.00;;;;;;;2.21;100.00;102405.69;4997495;28;20671;-48
2021/12/18 07:38:07;;;;;;;31.93;26.20;;;;;;;2.25;100.00;102416.97;4991031;28;20235;-49
2021/12/18 07:40:34;;;;;;;31.67;25.23;;;;;;;2.23;100.00;102403.22;4995549;28;20184;-49
2021/12/18 07:43:00;;;;;;;31.77;25.57;;;;;;;2.24;100.00;102413.53;4991917;28;20339;-49
2021/12/18 07:45:25;;;;;;;31.83;26.13;;;;;;;2.25;100.00;102406.75;4994595;28;20195;-49
2021/12/18 07:47:51;;;;;;;32.87;25.97;;;;;;;2.27;100.00;102413.69;4993575;28;20213;-48
2021/12/18 07:50:20;;;;;;;32.67;25.70;;;;;;;2.27;100.00;102416.25;4995923;28;20195;-48
2021/12/18 07:52:49;;;;;;;33.53;26.23;;;;;;;2.28;100.00;102404.38;4993130;28;20212;-48
2021/12/18 07:55:16;;;;;;;32.47;25.90;;;;;;;2.32;100.00;102397.75;4999912;28;20656;-49
2021/12/18 07:57:42;;;;;;;31.47;26.43;;;;;;;2.33;100.00;102407.19;5001257;28;20215;-48
2021/12/18 08:00:11;;;;;;;30.43;24.33;;;;;;;2.31;100.00;102417.34;5014797;28;20188;-48
2021/12/18 08:02:36;;;;;;;29.93;24.67;;;;;;;2.34;100.00;102406.41;5003965;28;20724;-48
2021/12/18 08:05:02;;;;;;;31.73;25.67;;;;;;;2.36;100.00;102400.59;4999364;28;20197;-49
2021/12/18 08:07:28;;;;;;;31.87;25.23;;;;;;;2.35;100.00;102426.91;4998437;28;20584;-49
2021/12/18 08:09:53;;;;;;;29.43;24.77;;;;;;;2.37;100.00;102411.69;5004162;28;20192;-49
2021/12/18 08:12:18;;;;;;;29.73;24.40;;;;;;;2.38;100.00;102416.03;5002826;28;20249;-48
2021/12/18 08:14:44;;;;;;;29.97;24.00;;;;;;;2.41;100.00;102417.06;5013271;28;20286;-50
2021/12/18 08:17:09;;;;;;;29.57;24.23;;;;;;;2.43;100.00;102401.81;5004431;28;20208;-49
2021/12/18 08:19:35;;;;;;;30.83;24.23;;;;;;;2.44;100.00;102403.59;4998819;28;20663;-49
2021/12/18 08:22:01;;;;;;;30.90;24.07;;;;;;;2.46;100.00;102394.34;5005321;28;20446;-49
2021/12/18 08:24:26;;;;;;;31.43;24.40;;;;;;;2.48;100.00;102395.31;5011130;28;20204;-48
2021/12/18 08:26:52;;;;;;;32.03;25.17;;;;;;;2.48;100.00;102407.22;5024622;28;20264;-48
2021/12/18 08:29:17;;;;;;;29.90;23.67;;;;;;;2.49;100.00;102393.66;4993295;28;20189;-47
2021/12/18 08:31:43;;;;;;;28.60;22.77;;;;;;;2.49;100.00;102396.22;4986407;28;20189;-49
2021/12/18 08:34:08;;;;;;;30.03;23.83;;;;;;;2.53;100.00;102399.03;4999890;28;20541;-48
2021/12/18 08:36:33;;;;;;;29.73;24.03;;;;;;;2.56;100.00;102398.31;5002652;28;20217;-48
2021/12/18 08:38:59;;;;;;;29.57;23.03;;;;;;;2.53;100.00;102398.13;5006497;28;20563;-48
2021/12/18 08:41:24;;;;;;;30.63;23.63;;;;;;;2.56;100.00;102396.66;5002305;28;20196;-49
2021/12/18 08:43:50;;;;;;;30.90;23.60;;;;;;;2.61;100.00;102381.59;5005036;28;20223;-49
2021/12/18 08:46:16;;;;;;;26.07;21.70;;;;;;;2.61;100.00;102389.25;5009523;28;20195;-47
2021/12/18 08:48:41;;;;;;;26.63;22.00;;;;;;;2.66;100.00;102386.94;5004720;28;20310;-48
2021/12/18 08:51:07;;;;;;;27.50;22.43;;;;;;;2.73;100.00;102381.38;4992986;28;20200;-48
2021/12/18 08:53:32;;;;;;;27.00;21.53;;;;;;;2.71;100.00;102381.31;4993416;28;20233;-49
2021/12/18 08:55:57;;;;;;;28.03;22.27;;;;;;;2.74;100.00;102385.69;4995285;28;20226;-49
2021/12/18 08:58:23;;;;;;;32.33;23.53;;;;;;;2.72;100.00;102374.53;4994453;28;20218;-50
2021/12/18 09:00:48;;;;;;;25.23;21.17;;;;;;;2.75;100.00;102377.25;4999571;28;20265;-48
2021/12/18 09:03:13;;;;;;;28.43;22.30;;;;;;;2.74;100.00;102389.16;4993874;28;20345;-49
2021/12/18 09:05:39;;;;;;;30.80;22.53;;;;;;;2.80;100.00;102392.88;4995755;28;20197;-49
2021/12/18 09:08:04;;;;;;;26.57;21.27;;;;;;;2.80;100.00;102383.50;5010097;28;20644;-49
2021/12/18 09:10:30;;;;;;;29.27;23.37;;;;;;;2.83;100.00;102388.81;5013688;28;20271;-49
2021/12/18 09:12:56;;;;;;;26.13;21.53;;;;;;;2.81;100.00;102400.63;5021560;28;20196;-50
2021/12/18 09:15:22;;;;;;;25.67;20.60;;;;;;;2.81;100.00;102400.63;4998647;28;20197;-49
2021/12/18 09:17:48;;;;;;;26.60;21.10;;;;;;;2.87;100.00;102389.84;5010469;27;20252;-48
2021/12/18 09:20:14;;;;;;;25.90;20.00;;;;;;;2.92;100.00;102390.09;4999606;28;20712;-49
2021/12/18 09:22:40;;;;;;;27.83;20.80;;;;;;;2.98;100.00;102382.78;5037757;28;20268;-48
2021/12/18 09:25:06;;;;;;;27.13;20.17;;;;;;;2.98;100.00;102386.22;5018917;28;20200;-50
2021/12/18 09:27:33;;;;;;;24.33;19.23;;;;;;;3.00;100.00;102394.00;5106839;27;20215;-49
2021/12/18 09:29:59;;;;;;;23.13;19.00;;;;;;;2.94;100.00;102391.06;5000015;28;20205;-49
2021/12/18 09:32:24;;;;;;;24.80;19.87;;;;;;;3.00;100.00;102382.06;4995337;28;20265;-49
2021/12/18 09:34:50;;;;;;;22.90;18.33;;;;;;;3.04;100.00;102388.22;5003442;28;20229;-49
2021/12/18 09:37:15;;;;;;;21.40;17.23;;;;;;;3.02;100.00;102390.72;5004367;28;20486;-49
2021/12/18 09:39:41;;;;;;;20.83;17.10;;;;;;;2.97;100.00;102387.00;5012844;28;20609;-49
2021/12/18 09:42:06;;;;;;;24.60;16.90;;;;;;;2.97;100.00;102387.00;4995061;28;20204;-51
2021/12/18 09:44:34;;;;;;;18.20;14.83;;;;;;;2.97;100.00;102381.03;4996072;28;20221;-49
2021/12/18 09:47:00;;;;;;;16.43;14.23;;;;;;;2.97;100.00;102387.00;5004637;28;20213;-51
2021/12/18 09:49:26;;;;;;;17.40;14.43;;;;;;;2.92;100.00;102380.78;4998613;28;20227;-51
2021/12/18 09:51:52;;;;;;;16.00;13.70;;;;;;;2.90;100.00;102367.88;4995932;28;20189;-50
2021/12/18 09:54:23;;;;;;;19.53;13.73;;;;;;;2.88;100.00;102371.16;5011376;28;20177;-51
2021/12/18 09:56:48;;;;;;;17.13;13.00;;;;;;;2.90;100.00;102359.34;5000893;28;20772;-51
2021/12/18 09:59:14;;;;;;;16.30;13.07;;;;;;;2.95;100.00;102354.47;4992760;28;20196;-50
2021/12/18 10:01:40;;;;;;;14.40;11.73;;;;;;;2.97;100.00;102358.00;4995582;28;20196;-51
2021/12/18 10:04:22;;;;;;;15.20;12.60;;;;;;;3.03;100.00;102349.00;5020603;28;20577;-50
2021/12/18 10:06:47;;;;;;;15.33;12.63;;;;;;;3.01;100.00;102354.81;5015318;28;20200;-51
2021/12/18 10:09:13;;;;;;;15.27;12.03;;;;;;;3.03;100.00;102361.78;4994844;28;20687;-51
2021/12/18 10:12:04;;;;;;;14.77;12.17;;;;;;;3.05;100.00;102344.84;5004962;28;20672;-51
2021/12/18 10:14:38;;;;;;;15.00;11.60;;;;;;;3.06;100.00;102345.72;5105233;27;20476;-51
2021/12/18 10:17:17;;;;;;;20.07;12.60;;;;;;;3.10;100.00;102355.31;4992529;28;20487;-51
2021/12/18 10:19:42;;;;;;;15.73;12.60;;;;;;;3.13;100.00;102335.03;4996883;28;20649;-51
2021/12/18 10:22:10;;;;;;;20.23;13.20;;;;;;;3.19;100.00;102326.81;5007820;28;20199;-52
2021/12/18 10:24:39;;;;;;;17.47;12.93;;;;;;;3.27;100.00;102334.91;5005671;28;20216;-50
2021/12/18 10:27:23;;;;;;;15.43;12.57;;;;;;;3.32;100.00;102330.91;5021246;28;20581;-52
2021/12/18 10:29:51;;;;;;;14.23;11.67;;;;;;;3.37;100.00;102319.22;5001199;28;20228;-52
2021/12/18 10:32:23;;;;;;;14.73;11.27;;;;;;;3.41;100.00;102316.03;5003309;28;20198;-51
2021/12/18 10:34:55;;;;;;;15.83;11.93;;;;;;;3.42;100.00;102302.44;4999961;28;20236;-51
2021/12/18 10:37:23;;;;;;;14.00;11.50;;;;;;;3.45;100.00;102314.50;5001641;28;20703;-50
2021/12/18 10:39:53;;;;;;;14.87;11.80;;;;;;;3.47;100.00;102310.34;4996202;28;20238;-51
2021/12/18 10:42:18;;;;;;;15.37;11.77;;;;;;;3.48;100.00;102310.44;4997048;28;20273;-51
2021/12/18 10:45:14;;;;;;;14.17;11.20;;;;;;;3.53;100.00;102303.00;4995354;28;20686;-51
2021/12/18 10:47:46;;;;;;;16.73;12.97;;;;;;;3.53;100.00;102297.00;5001405;28;20211;-52
2021/12/18 10:50:24;;;;;;;15.47;12.13;;;;;;;3.55;100.00;102303.97;5004625;28;20287;-52
2021/12/18 10:53:14;;;;;;;17.27;13.00;;;;;;;3.56;100.00;102310.84;5010402;28;20665;-52
2021/12/18 10:55:46;;;;;;;16.60;12.73;;;;;;;3.61;100.00;102301.72;5005732;28;20217;-50
2021/12/18 10:58:15;;;;;;;15.47;12.73;;;;;;;3.60;100.00;102291.41;4993458;28;20703;-51
2021/12/18 11:00:51;;;;;;;15.63;11.97;;;;;;;3.60;100.00;102304.22;5000141;28;20274;-52
2021/12/18 11:03:28;;;;;;;16.07;13.03;;;;;;;3.63;100.00;102299.25;5011788;28;20224;-53
2021/12/18 11:06:23;;;;;;;16.33;12.30;;;;;;;3.65;100.00;102302.75;4994986;28;20250;-52
2021/12/18 11:09:04;;;;;;;16.77;12.10;;;;;;;3.68;100.00;102294.38;4993439;28;20204;-52
2021/12/18 11:14:16;;;;;;;15.83;12.77;;;;;;;3.83;100.00;102278.91;4989643;28;20197;-51
2021/12/18 11:16:46;;;;;;;16.03;12.57;;;;;;;3.83;100.00;102279.78;5041743;28;20661;-52
2021/12/18 11:19:16;;;;;;;15.70;12.67;;;;;;;3.87;100.00;102275.69;5020817;28;20217;-51
2021/12/18 11:21:54;;;;;;;14.30;12.27;;;;;;;3.93;100.00;102268.34;5007767;28;20251;-52
2021/12/18 11:24:21;;;;;;;15.40;11.60;;;;;;;3.94;100.00;102263.28;5005164;28;20417;-52
2021/12/18 11:26:59;;;;;;;15.87;12.63;;;;;;;3.88;100.00;102273.19;4992039;28;20281;-51
2021/12/18 11:29:47;;;;;;;16.60;13.17;;;;;;;3.93;100.00;102247.84;4995846;28;20196;-51
2021/12/18 11:32:22;;;;;;;15.20;12.63;;;;;;;3.90;100.00;102261.34;5000801;28;20185;-51
2021/12/18 11:34:50;;;;;;;17.20;12.60;;;;;;;3.89;100.00;102259.59;4998174;28;20190;-52
2021/12/18 11:37:18;;;;;;;15.50;11.97;;;;;;;3.93;100.00;102276.88;4992939;28;20635;-52
2021/12/18 11:39:45;;;;;;;14.47;11.87;;;;;;;3.91;100.00;102252.88;4994268;28;20196;-52
2021/12/18 11:42:13;;;;;;;16.07;13.17;;;;;;;3.90;100.00;102245.97;4995606;28;20193;-52
2021/12/18 11:44:41;;;;;;;16.00;12.27;;;;;;;3.91;100.00;102259.69;5001193;28;20316;-52
2021/12/18 11:47:34;;;;;;;15.60;12.80;;;;;;;3.93;100.00;102243.59;4994450;28;20599;-52
2021/12/18 11:50:02;;;;;;;14.57;11.83;;;;;;;3.97;100.00;102237.81;5000864;28;20297;-52
2021/12/18 11:52:31;;;;;;;13.80;12.03;;;;;;;4.01;100.00;102241.41;5000816;28;20552;-53
2021/12/18 11:55:00;;;;;;;15.83;12.83;;;;;;;4.07;100.00;102235.69;4992494;28;20199;-52
2021/12/18 11:57:48;;;;;;;17.93;13.10;;;;;;;4.14;100.00;102229.19;4992785;28;20208;-51
2021/12/18 12:00:16;;;;;;;16.00;13.13;;;;;;;4.15;100.00;102229.28;4996028;28;20192;-52
2021/12/18 12:02:53;;;;;;;14.93;12.50;;;;;;;4.18;100.00;102224.28;4993876;28;20196;-52